sensor_id;sensor_type;location;lat;lon;timestamp;temperature;humidity
49222;DHT22;35047;37.588;-122.048;2022-10-16T00:01:30;22.60;82.10
49222;DHT22;35047;37.588;-122.048;2022-10-16T00:03:59;22.50;82.20
49222;DHT22;35047;37.588;-122.048;2022-10-16T00:06:27;22.40;82.70
49222;DHT22;35047;37.588;-122.048;2022-10-16T00:08:55;22.30;82.40
49222;DHT22;35047;37.588;-122.048;2022-10-16T00:11:25;22.10;83.60
49222;DHT22;35047;37.588;-122.048;2022-10-16T00:13:56;22.00;83.60
49222;DHT22;35047;37.588;-122.048;2022-10-16T00:16:23;21.90;84.50
49222;DHT22;35047;37.588;-122.048;2022-10-16T00:18:50;21.80;84.40
49222;DHT22;35047;37.588;-122.048;2022-10-16T00:21:19;21.80;84.80
49222;DHT22;35047;37.588;-122.048;2022-10-16T00:23:50;21.80;84.40
49222;DHT22;35047;37.588;-122.048;2022-10-16T00:26:18;21.70;84.70
49222;DHT22;35047;37.588;-122.048;2022-10-16T00:28:50;21.60;85.50
49222;DHT22;35047;37.588;-122.048;2022-10-16T00:31:18;21.50;86.00
49222;DHT22;35047;37.588;-122.048;2022-10-16T00:33:47;21.30;86.30
49222;DHT22;35047;37.588;-122.048;2022-10-16T00:36:14;21.30;87.40
49222;DHT22;35047;37.588;-122.048;2022-10-16T00:38:42;21.30;86.90
49222;DHT22;35047;37.588;-122.048;2022-10-16T00:41:14;21.30;87.40
49222;DHT22;35047;37.588;-122.048;2022-10-16T00:43:46;21.30;87.30
49222;DHT22;35047;37.588;-122.048;2022-10-16T00:46:54;21.30;87.90
49222;DHT22;35047;37.588;-122.048;2022-10-16T00:49:18;21.30;87.90
49222;DHT22;35047;37.588;-122.048;2022-10-16T00:51:49;21.20;87.70
49222;DHT22;35047;37.588;-122.048;2022-10-16T00:54:23;21.10;88.10
49222;DHT22;35047;37.588;-122.048;2022-10-16T00:56:52;21.00;88.50
49222;DHT22;35047;37.588;-122.048;2022-10-16T00:59:27;21.00;88.10
49222;DHT22;35047;37.588;-122.048;2022-10-16T01:01:55;21.00;88.90
49222;DHT22;35047;37.588;-122.048;2022-10-16T01:04:23;20.80;89.90
49222;DHT22;35047;37.588;-122.048;2022-10-16T01:06:59;20.80;90.20
49222;DHT22;35047;37.588;-122.048;2022-10-16T01:14:53;20.80;90.00
49222;DHT22;35047;37.588;-122.048;2022-10-16T01:17:42;20.80;90.10
49222;DHT22;35047;37.588;-122.048;2022-10-16T01:23:08;20.80;90.30
49222;DHT22;35047;37.588;-122.048;2022-10-16T01:28:34;20.70;90.30
49222;DHT22;35047;37.588;-122.048;2022-10-16T01:31:03;20.70;90.50
49222;DHT22;35047;37.588;-122.048;2022-10-16T01:33:44;20.50;90.70
49222;DHT22;35047;37.588;-122.048;2022-10-16T01:36:23;20.40;91.20
49222;DHT22;35047;37.588;-122.048;2022-10-16T01:38:54;20.40;91.20
49222;DHT22;35047;37.588;-122.048;2022-10-16T01:41:26;20.30;91.20
49222;DHT22;35047;37.588;-122.048;2022-10-16T01:44:08;20.30;91.70
49222;DHT22;35047;37.588;-122.048;2022-10-16T01:46:40;20.30;91.50
49222;DHT22;35047;37.588;-122.048;2022-10-16T01:49:09;20.20;91.70
49222;DHT22;35047;37.588;-122.048;2022-10-16T01:51:37;20.20;91.80
49222;DHT22;35047;37.588;-122.048;2022-10-16T01:54:06;20.20;91.40
49222;DHT22;35047;37.588;-122.048;2022-10-16T01:56:34;20.10;91.90
49222;DHT22;35047;37.588;-122.048;2022-10-16T01:59:11;20.00;92.30
49222;DHT22;35047;37.588;-122.048;2022-10-16T02:01:40;20.00;92.40
49222;DHT22;35047;37.588;-122.048;2022-10-16T02:04:19;20.00;92.20
49222;DHT22;35047;37.588;-122.048;2022-10-16T02:06:47;19.90;92.40
49222;DHT22;35047;37.588;-122.048;2022-10-16T02:09:13;19.90;92.20
49222;DHT22;35047;37.588;-122.048;2022-10-16T02:11:43;19.90;92.30
49222;DHT22;35047;37.588;-122.048;2022-10-16T02:14:10;19.90;92.10
49222;DHT22;35047;37.588;-122.048;2022-10-16T02:16:43;19.80;92.10
49222;DHT22;35047;37.588;-122.048;2022-10-16T02:19:13;19.80;92.40
49222;DHT22;35047;37.588;-122.048;2022-10-16T02:21:56;19.90;92.20
49222;DHT22;35047;37.588;-122.048;2022-10-16T02:27:35;20.00;92.10
49222;DHT22;35047;37.588;-122.048;2022-10-16T02:32:35;20.00;92.00
49222;DHT22;35047;37.588;-122.048;2022-10-16T02:35:04;19.90;91.90
49222;DHT22;35047;37.588;-122.048;2022-10-16T02:37:32;19.90;92.30
49222;DHT22;35047;37.588;-122.048;2022-10-16T02:39:59;19.80;92.20
49222;DHT22;35047;37.588;-122.048;2022-10-16T02:42:33;19.90;92.20
49222;DHT22;35047;37.588;-122.048;2022-10-16T02:45:01;19.90;92.20
49222;DHT22;35047;37.588;-122.048;2022-10-16T02:47:27;19.90;92.30
49222;DHT22;35047;37.588;-122.048;2022-10-16T02:49:55;19.90;92.40
49222;DHT22;35047;37.588;-122.048;2022-10-16T02:52:21;19.90;91.90
49222;DHT22;35047;37.588;-122.048;2022-10-16T02:54:48;20.00;92.30
49222;DHT22;35047;37.588;-122.048;2022-10-16T02:57:14;19.90;92.00
49222;DHT22;35047;37.588;-122.048;2022-10-16T02:59:41;19.90;92.00
49222;DHT22;35047;37.588;-122.048;2022-10-16T03:02:07;19.90;92.00
49222;DHT22;35047;37.588;-122.048;2022-10-16T03:04:34;20.00;91.90
49222;DHT22;35047;37.588;-122.048;2022-10-16T03:07:01;20.00;92.10
49222;DHT22;35047;37.588;-122.048;2022-10-16T03:09:29;20.00;92.00
49222;DHT22;35047;37.588;-122.048;2022-10-16T03:11:55;20.10;92.00
49222;DHT22;35047;37.588;-122.048;2022-10-16T03:14:22;20.10;92.00
49222;DHT22;35047;37.588;-122.048;2022-10-16T03:16:49;20.10;92.00
49222;DHT22;35047;37.588;-122.048;2022-10-16T03:19:19;20.10;91.90
49222;DHT22;35047;37.588;-122.048;2022-10-16T03:21:45;20.10;91.60
49222;DHT22;35047;37.588;-122.048;2022-10-16T03:24:11;20.10;91.70
49222;DHT22;35047;37.588;-122.048;2022-10-16T03:26:38;20.10;91.60
49222;DHT22;35047;37.588;-122.048;2022-10-16T03:29:06;20.20;91.70
49222;DHT22;35047;37.588;-122.048;2022-10-16T03:31:34;20.20;91.40
49222;DHT22;35047;37.588;-122.048;2022-10-16T03:34:00;20.20;91.70
49222;DHT22;35047;37.588;-122.048;2022-10-16T03:36:27;20.20;91.80
49222;DHT22;35047;37.588;-122.048;2022-10-16T03:38:53;20.30;91.60
49222;DHT22;35047;37.588;-122.048;2022-10-16T03:41:20;20.40;91.60
49222;DHT22;35047;37.588;-122.048;2022-10-16T03:43:47;20.40;91.40
49222;DHT22;35047;37.588;-122.048;2022-10-16T03:46:14;20.30;91.30
49222;DHT22;35047;37.588;-122.048;2022-10-16T03:48:40;20.30;91.50
49222;DHT22;35047;37.588;-122.048;2022-10-16T03:51:08;20.30;91.50
49222;DHT22;35047;37.588;-122.048;2022-10-16T03:53:35;20.50;91.60
49222;DHT22;35047;37.588;-122.048;2022-10-16T03:56:02;20.40;91.20
49222;DHT22;35047;37.588;-122.048;2022-10-16T03:58:28;20.30;91.40
49222;DHT22;35047;37.588;-122.048;2022-10-16T04:00:55;20.40;91.10
49222;DHT22;35047;37.588;-122.048;2022-10-16T04:03:22;20.50;91.10
49222;DHT22;35047;37.588;-122.048;2022-10-16T04:05:50;20.50;91.30
49222;DHT22;35047;37.588;-122.048;2022-10-16T04:08:16;20.60;90.60
49222;DHT22;35047;37.588;-122.048;2022-10-16T04:10:44;20.60;90.90
49222;DHT22;35047;37.588;-122.048;2022-10-16T04:13:11;20.60;90.80
49222;DHT22;35047;37.588;-122.048;2022-10-16T04:15:38;20.50;91.20
49222;DHT22;35047;37.588;-122.048;2022-10-16T04:18:05;20.50;91.30
49222;DHT22;35047;37.588;-122.048;2022-10-16T04:20:33;20.60;90.90
49222;DHT22;35047;37.588;-122.048;2022-10-16T04:22:59;20.50;90.90
49222;DHT22;35047;37.588;-122.048;2022-10-16T04:25:27;20.40;91.00
49222;DHT22;35047;37.588;-122.048;2022-10-16T04:27:54;20.40;91.30
49222;DHT22;35047;37.588;-122.048;2022-10-16T04:30:21;20.50;91.20
49222;DHT22;35047;37.588;-122.048;2022-10-16T04:32:52;20.40;91.00
49222;DHT22;35047;37.588;-122.048;2022-10-16T04:35:20;20.50;91.10
49222;DHT22;35047;37.588;-122.048;2022-10-16T04:37:47;20.50;90.90
49222;DHT22;35047;37.588;-122.048;2022-10-16T04:40:14;20.50;91.10
49222;DHT22;35047;37.588;-122.048;2022-10-16T04:42:41;20.60;91.00
49222;DHT22;35047;37.588;-122.048;2022-10-16T04:45:08;20.60;90.80
49222;DHT22;35047;37.588;-122.048;2022-10-16T04:47:35;20.50;90.90
49222;DHT22;35047;37.588;-122.048;2022-10-16T04:50:02;20.50;91.00
49222;DHT22;35047;37.588;-122.048;2022-10-16T04:52:28;20.40;91.40
49222;DHT22;35047;37.588;-122.048;2022-10-16T04:54:57;20.40;91.30
49222;DHT22;35047;37.588;-122.048;2022-10-16T04:57:27;20.60;91.20
49222;DHT22;35047;37.588;-122.048;2022-10-16T04:59:54;20.70;91.00
49222;DHT22;35047;37.588;-122.048;2022-10-16T05:02:21;20.90;90.70
49222;DHT22;35047;37.588;-122.048;2022-10-16T05:04:47;20.80;90.20
49222;DHT22;35047;37.588;-122.048;2022-10-16T05:07:14;20.70;90.60
49222;DHT22;35047;37.588;-122.048;2022-10-16T05:09:40;20.70;90.70
49222;DHT22;35047;37.588;-122.048;2022-10-16T05:12:08;20.70;90.60
49222;DHT22;35047;37.588;-122.048;2022-10-16T05:14:34;20.60;90.80
49222;DHT22;35047;37.588;-122.048;2022-10-16T05:17:02;20.60;90.80
49222;DHT22;35047;37.588;-122.048;2022-10-16T05:19:28;20.60;90.70
49222;DHT22;35047;37.588;-122.048;2022-10-16T05:21:55;20.60;90.90
49222;DHT22;35047;37.588;-122.048;2022-10-16T05:24:23;20.60;90.80
49222;DHT22;35047;37.588;-122.048;2022-10-16T05:26:51;20.50;90.70
49222;DHT22;35047;37.588;-122.048;2022-10-16T05:29:18;20.50;91.00
49222;DHT22;35047;37.588;-122.048;2022-10-16T05:31:45;20.50;91.00
49222;DHT22;35047;37.588;-122.048;2022-10-16T05:34:12;20.70;91.10
49222;DHT22;35047;37.588;-122.048;2022-10-16T05:36:39;20.90;90.80
49222;DHT22;35047;37.588;-122.048;2022-10-16T05:39:05;21.10;90.50
49222;DHT22;35047;37.588;-122.048;2022-10-16T05:41:33;21.10;90.50
49222;DHT22;35047;37.588;-122.048;2022-10-16T05:43:59;21.30;90.20
49222;DHT22;35047;37.588;-122.048;2022-10-16T05:46:26;21.30;89.70
49222;DHT22;35047;37.588;-122.048;2022-10-16T05:48:53;21.30;89.80
49222;DHT22;35047;37.588;-122.048;2022-10-16T05:51:20;21.30;90.00
49222;DHT22;35047;37.588;-122.048;2022-10-16T05:53:46;21.30;90.10
49222;DHT22;35047;37.588;-122.048;2022-10-16T05:56:14;21.30;90.00
49222;DHT22;35047;37.588;-122.048;2022-10-16T05:58:41;21.40;89.60
49222;DHT22;35047;37.588;-122.048;2022-10-16T06:01:15;21.50;89.50
49222;DHT22;35047;37.588;-122.048;2022-10-16T06:03:43;21.40;89.30
49222;DHT22;35047;37.588;-122.048;2022-10-16T06:06:10;21.30;89.30
49222;DHT22;35047;37.588;-122.048;2022-10-16T06:08:38;21.10;90.00
49222;DHT22;35047;37.588;-122.048;2022-10-16T06:11:07;21.10;90.10
49222;DHT22;35047;37.588;-122.048;2022-10-16T06:13:34;21.30;90.10
49222;DHT22;35047;37.588;-122.048;2022-10-16T06:16:02;21.00;89.40
49222;DHT22;35047;37.588;-122.048;2022-10-16T06:18:30;20.90;90.50
49222;DHT22;35047;37.588;-122.048;2022-10-16T06:20:57;21.00;90.20
49222;DHT22;35047;37.588;-122.048;2022-10-16T06:23:25;21.20;90.10
49222;DHT22;35047;37.588;-122.048;2022-10-16T06:25:52;21.30;89.60
49222;DHT22;35047;37.588;-122.048;2022-10-16T06:28:19;21.40;89.20
49222;DHT22;35047;37.588;-122.048;2022-10-16T06:30:46;21.20;88.70
49222;DHT22;35047;37.588;-122.048;2022-10-16T06:33:13;21.20;89.40
49222;DHT22;35047;37.588;-122.048;2022-10-16T06:35:40;21.20;89.90
49222;DHT22;35047;37.588;-122.048;2022-10-16T06:38:06;21.30;89.30
49222;DHT22;35047;37.588;-122.048;2022-10-16T06:40:33;21.40;89.20
49222;DHT22;35047;37.588;-122.048;2022-10-16T06:43:00;21.40;88.70
49222;DHT22;35047;37.588;-122.048;2022-10-16T06:45:26;21.40;89.00
49222;DHT22;35047;37.588;-122.048;2022-10-16T06:47:53;21.30;88.60
49222;DHT22;35047;37.588;-122.048;2022-10-16T06:50:20;21.40;88.70
49222;DHT22;35047;37.588;-122.048;2022-10-16T06:52:47;21.30;88.60
49222;DHT22;35047;37.588;-122.048;2022-10-16T06:55:13;21.40;88.90
49222;DHT22;35047;37.588;-122.048;2022-10-16T06:57:41;21.50;88.20
49222;DHT22;35047;37.588;-122.048;2022-10-16T07:00:07;21.40;87.80
49222;DHT22;35047;37.588;-122.048;2022-10-16T07:02:34;21.30;89.00
49222;DHT22;35047;37.588;-122.048;2022-10-16T07:05:02;21.20;88.40
49222;DHT22;35047;37.588;-122.048;2022-10-16T07:07:29;21.10;89.10
49222;DHT22;35047;37.588;-122.048;2022-10-16T07:09:56;21.10;89.30
49222;DHT22;35047;37.588;-122.048;2022-10-16T07:12:22;21.20;88.30
49222;DHT22;35047;37.588;-122.048;2022-10-16T07:14:50;21.20;88.60
49222;DHT22;35047;37.588;-122.048;2022-10-16T07:17:18;21.20;87.70
49222;DHT22;35047;37.588;-122.048;2022-10-16T07:19:45;21.10;88.30
49222;DHT22;35047;37.588;-122.048;2022-10-16T07:22:11;21.00;88.10
49222;DHT22;35047;37.588;-122.048;2022-10-16T07:24:38;20.80;89.10
49222;DHT22;35047;37.588;-122.048;2022-10-16T07:27:04;20.80;89.00
49222;DHT22;35047;37.588;-122.048;2022-10-16T07:29:32;20.60;89.70
49222;DHT22;35047;37.588;-122.048;2022-10-16T07:31:58;20.60;89.30
49222;DHT22;35047;37.588;-122.048;2022-10-16T07:34:26;20.50;90.10
49222;DHT22;35047;37.588;-122.048;2022-10-16T07:36:53;20.40;90.40
49222;DHT22;35047;37.588;-122.048;2022-10-16T07:39:20;20.40;90.80
49222;DHT22;35047;37.588;-122.048;2022-10-16T07:41:47;20.40;90.40
49222;DHT22;35047;37.588;-122.048;2022-10-16T07:44:15;20.40;90.70
49222;DHT22;35047;37.588;-122.048;2022-10-16T07:46:41;20.40;90.40
49222;DHT22;35047;37.588;-122.048;2022-10-16T07:49:12;20.40;90.50
49222;DHT22;35047;37.588;-122.048;2022-10-16T07:51:39;20.40;90.40
49222;DHT22;35047;37.588;-122.048;2022-10-16T07:54:09;20.40;90.40
49222;DHT22;35047;37.588;-122.048;2022-10-16T07:56:36;20.40;90.40
49222;DHT22;35047;37.588;-122.048;2022-10-16T07:59:03;20.40;90.30
49222;DHT22;35047;37.588;-122.048;2022-10-16T08:01:29;20.40;90.60
49222;DHT22;35047;37.588;-122.048;2022-10-16T08:03:55;20.50;90.20
49222;DHT22;35047;37.588;-122.048;2022-10-16T08:06:23;20.50;90.50
49222;DHT22;35047;37.588;-122.048;2022-10-16T08:08:50;20.40;90.40
49222;DHT22;35047;37.588;-122.048;2022-10-16T08:11:16;20.50;90.10
49222;DHT22;35047;37.588;-122.048;2022-10-16T08:13:43;20.40;90.00
49222;DHT22;35047;37.588;-122.048;2022-10-16T08:16:10;20.40;90.00
49222;DHT22;35047;37.588;-122.048;2022-10-16T08:18:38;20.30;90.60
49222;DHT22;35047;37.588;-122.048;2022-10-16T08:21:08;20.30;90.40
49222;DHT22;35047;37.588;-122.048;2022-10-16T08:23:38;20.30;90.20
49222;DHT22;35047;37.588;-122.048;2022-10-16T08:26:07;20.40;90.60
49222;DHT22;35047;37.588;-122.048;2022-10-16T08:28:34;20.50;90.10
49222;DHT22;35047;37.588;-122.048;2022-10-16T08:31:12;20.50;89.40
49222;DHT22;35047;37.588;-122.048;2022-10-16T08:33:42;20.30;89.50
49222;DHT22;35047;37.588;-122.048;2022-10-16T08:36:10;20.40;90.00
49222;DHT22;35047;37.588;-122.048;2022-10-16T08:38:39;20.40;89.90
49222;DHT22;35047;37.588;-122.048;2022-10-16T08:41:36;20.60;90.10
49222;DHT22;35047;37.588;-122.048;2022-10-16T08:49:58;20.80;89.00
49222;DHT22;35047;37.588;-122.048;2022-10-16T08:52:35;20.80;89.40
49222;DHT22;35047;37.588;-122.048;2022-10-16T08:55:05;20.70;89.90
49222;DHT22;35047;37.588;-122.048;2022-10-16T08:57:31;20.90;89.70
49222;DHT22;35047;37.588;-122.048;2022-10-16T09:00:05;20.80;89.00
49222;DHT22;35047;37.588;-122.048;2022-10-16T09:10:44;20.70;88.50
49222;DHT22;35047;37.588;-122.048;2022-10-16T09:13:29;20.80;88.20
49222;DHT22;35047;37.588;-122.048;2022-10-16T09:18:58;21.00;87.60
49222;DHT22;35047;37.588;-122.048;2022-10-16T09:21:30;21.00;87.10
49222;DHT22;35047;37.588;-122.048;2022-10-16T09:24:27;20.90;86.90
49222;DHT22;35047;37.588;-122.048;2022-10-16T09:26:54;20.90;87.10
49222;DHT22;35047;37.588;-122.048;2022-10-16T09:29:21;21.00;86.90
49222;DHT22;35047;37.588;-122.048;2022-10-16T09:31:53;21.00;86.00
49222;DHT22;35047;37.588;-122.048;2022-10-16T09:34:38;21.10;85.90
49222;DHT22;35047;37.588;-122.048;2022-10-16T09:37:10;21.20;85.60
49222;DHT22;35047;37.588;-122.048;2022-10-16T09:39:52;21.20;85.50
49222;DHT22;35047;37.588;-122.048;2022-10-16T09:42:25;21.30;85.30
49222;DHT22;35047;37.588;-122.048;2022-10-16T09:44:54;21.40;85.40
49222;DHT22;35047;37.588;-122.048;2022-10-16T09:47:22;21.40;84.80
49222;DHT22;35047;37.588;-122.048;2022-10-16T09:49:56;21.40;84.60
49222;DHT22;35047;37.588;-122.048;2022-10-16T09:52:25;21.50;83.50
49222;DHT22;35047;37.588;-122.048;2022-10-16T09:54:58;21.40;84.30
49222;DHT22;35047;37.588;-122.048;2022-10-16T09:57:25;21.50;84.00
49222;DHT22;35047;37.588;-122.048;2022-10-16T09:59:52;21.30;83.70
49222;DHT22;35047;37.588;-122.048;2022-10-16T10:02:34;21.30;83.40
49222;DHT22;35047;37.588;-122.048;2022-10-16T10:05:02;21.20;84.50
49222;DHT22;35047;37.588;-122.048;2022-10-16T10:07:38;21.20;84.70
49222;DHT22;35047;37.588;-122.048;2022-10-16T10:10:22;21.20;84.60
49222;DHT22;35047;37.588;-122.048;2022-10-16T10:12:50;21.20;84.30
49222;DHT22;35047;37.588;-122.048;2022-10-16T10:15:16;21.20;84.20
49222;DHT22;35047;37.588;-122.048;2022-10-16T10:17:49;21.10;84.30
49222;DHT22;35047;37.588;-122.048;2022-10-16T10:20:33;21.20;84.40
49222;DHT22;35047;37.588;-122.048;2022-10-16T10:23:23;21.20;84.60
49222;DHT22;35047;37.588;-122.048;2022-10-16T10:26:18;21.10;84.70
49222;DHT22;35047;37.588;-122.048;2022-10-16T10:32:05;21.20;84.80
49222;DHT22;35047;37.588;-122.048;2022-10-16T10:34:51;21.20;84.60
49222;DHT22;35047;37.588;-122.048;2022-10-16T10:37:30;21.10;85.50
49222;DHT22;35047;37.588;-122.048;2022-10-16T10:43:25;21.00;85.50
49222;DHT22;35047;37.588;-122.048;2022-10-16T10:46:00;20.90;86.20
49222;DHT22;35047;37.588;-122.048;2022-10-16T10:54:14;20.90;87.20
49222;DHT22;35047;37.588;-122.048;2022-10-16T10:56:48;20.90;86.70
49222;DHT22;35047;37.588;-122.048;2022-10-16T11:00:02;20.80;87.10
49222;DHT22;35047;37.588;-122.048;2022-10-16T11:05:24;20.70;86.80
49222;DHT22;35047;37.588;-122.048;2022-10-16T11:10:44;20.70;87.90
49222;DHT22;35047;37.588;-122.048;2022-10-16T11:13:28;20.90;87.30
49222;DHT22;35047;37.588;-122.048;2022-10-16T11:16:00;20.90;87.70
49222;DHT22;35047;37.588;-122.048;2022-10-16T11:24:44;20.80;88.00
49222;DHT22;35047;37.588;-122.048;2022-10-16T11:27:34;20.80;87.30
49222;DHT22;35047;37.588;-122.048;2022-10-16T11:30:05;20.70;88.20
49222;DHT22;35047;37.588;-122.048;2022-10-16T11:32:44;20.90;88.00
49222;DHT22;35047;37.588;-122.048;2022-10-16T11:35:19;21.00;87.00
49222;DHT22;35047;37.588;-122.048;2022-10-16T11:37:51;20.90;87.70
49222;DHT22;35047;37.588;-122.048;2022-10-16T11:40:38;21.10;86.90
49222;DHT22;35047;37.588;-122.048;2022-10-16T11:43:19;21.10;87.00
49222;DHT22;35047;37.588;-122.048;2022-10-16T11:49:03;21.20;86.50
49222;DHT22;35047;37.588;-122.048;2022-10-16T11:51:40;21.20;86.30
49222;DHT22;35047;37.588;-122.048;2022-10-16T11:54:32;21.20;86.60
49222;DHT22;35047;37.588;-122.048;2022-10-16T11:57:03;21.10;86.20
49222;DHT22;35047;37.588;-122.048;2022-10-16T11:59:46;21.00;86.30
49222;DHT22;35047;37.588;-122.048;2022-10-16T12:07:39;21.00;87.00
49222;DHT22;35047;37.588;-122.048;2022-10-16T12:10:22;21.00;87.10
49222;DHT22;35047;37.588;-122.048;2022-10-16T12:12:49;21.10;87.30
49222;DHT22;35047;37.588;-122.048;2022-10-16T12:15:26;21.20;86.20
49222;DHT22;35047;37.588;-122.048;2022-10-16T12:17:54;21.30;86.30
49222;DHT22;35047;37.588;-122.048;2022-10-16T12:20:32;21.20;86.10
49222;DHT22;35047;37.588;-122.048;2022-10-16T12:23:07;21.30;86.60
49222;DHT22;35047;37.588;-122.048;2022-10-16T12:26:00;21.30;86.30
49222;DHT22;35047;37.588;-122.048;2022-10-16T12:28:34;21.20;86.30
49222;DHT22;35047;37.588;-122.048;2022-10-16T12:31:05;21.30;85.70
49222;DHT22;35047;37.588;-122.048;2022-10-16T12:33:37;21.20;86.70
49222;DHT22;35047;37.588;-122.048;2022-10-16T12:36:15;21.20;87.00
49222;DHT22;35047;37.588;-122.048;2022-10-16T12:38:50;21.20;86.70
49222;DHT22;35047;37.588;-122.048;2022-10-16T12:41:28;21.10;86.40
49222;DHT22;35047;37.588;-122.048;2022-10-16T12:43:55;21.00;87.10
49222;DHT22;35047;37.588;-122.048;2022-10-16T12:46:37;21.00;87.20
49222;DHT22;35047;37.588;-122.048;2022-10-16T12:49:23;21.10;87.30
49222;DHT22;35047;37.588;-122.048;2022-10-16T12:51:57;21.10;86.90
49222;DHT22;35047;37.588;-122.048;2022-10-16T12:54:31;21.30;86.70
49222;DHT22;35047;37.588;-122.048;2022-10-16T12:57:41;21.30;86.70
49222;DHT22;35047;37.588;-122.048;2022-10-16T13:14:18;21.30;86.60
49222;DHT22;35047;37.588;-122.048;2022-10-16T13:19:41;21.20;86.30
49222;DHT22;35047;37.588;-122.048;2022-10-16T13:22:43;21.10;87.30
49222;DHT22;35047;37.588;-122.048;2022-10-16T13:30:29;21.40;86.30
49222;DHT22;35047;37.588;-122.048;2022-10-16T13:35:53;21.50;86.00
49222;DHT22;35047;37.588;-122.048;2022-10-16T13:38:25;21.40;85.60
49222;DHT22;35047;37.588;-122.048;2022-10-16T13:40:57;21.40;85.60
49222;DHT22;35047;37.588;-122.048;2022-10-16T13:43:42;21.10;86.00
49222;DHT22;35047;37.588;-122.048;2022-10-16T13:46:18;21.10;87.00
49222;DHT22;35047;37.588;-122.048;2022-10-16T13:48:55;21.10;86.80
49222;DHT22;35047;37.588;-122.048;2022-10-16T13:51:22;21.20;87.00
49222;DHT22;35047;37.588;-122.048;2022-10-16T13:53:49;21.40;86.40
49222;DHT22;35047;37.588;-122.048;2022-10-16T13:56:21;21.30;86.00
49222;DHT22;35047;37.588;-122.048;2022-10-16T13:59:06;21.30;86.40
49222;DHT22;35047;37.588;-122.048;2022-10-16T14:01:43;21.30;86.10
49222;DHT22;35047;37.588;-122.048;2022-10-16T14:04:12;21.30;85.60
49222;DHT22;35047;37.588;-122.048;2022-10-16T14:06:46;21.30;86.10
49222;DHT22;35047;37.588;-122.048;2022-10-16T14:09:26;21.30;86.20
49222;DHT22;35047;37.588;-122.048;2022-10-16T14:11:56;21.20;86.40
49222;DHT22;35047;37.588;-122.048;2022-10-16T14:14:24;21.20;86.60
49222;DHT22;35047;37.588;-122.048;2022-10-16T14:16:53;21.10;86.40
49222;DHT22;35047;37.588;-122.048;2022-10-16T14:19:26;21.10;86.50
49222;DHT22;35047;37.588;-122.048;2022-10-16T14:21:54;21.20;86.70
49222;DHT22;35047;37.588;-122.048;2022-10-16T14:24:33;21.30;85.50
49222;DHT22;35047;37.588;-122.048;2022-10-16T14:27:01;21.30;86.10
49222;DHT22;35047;37.588;-122.048;2022-10-16T14:29:29;21.30;85.40
49222;DHT22;35047;37.588;-122.048;2022-10-16T14:32:03;21.40;85.60
49222;DHT22;35047;37.588;-122.048;2022-10-16T14:34:33;21.30;85.80
49222;DHT22;35047;37.588;-122.048;2022-10-16T14:37:25;21.40;85.30
49222;DHT22;35047;37.588;-122.048;2022-10-16T14:39:53;21.30;85.80
49222;DHT22;35047;37.588;-122.048;2022-10-16T14:42:21;21.50;85.70
49222;DHT22;35047;37.588;-122.048;2022-10-16T14:44:51;21.40;84.70
49222;DHT22;35047;37.588;-122.048;2022-10-16T14:47:23;21.40;85.50
49222;DHT22;35047;37.588;-122.048;2022-10-16T14:49:53;21.30;85.30
49222;DHT22;35047;37.588;-122.048;2022-10-16T14:52:24;21.20;85.20
49222;DHT22;35047;37.588;-122.048;2022-10-16T14:54:52;21.10;85.80
49222;DHT22;35047;37.588;-122.048;2022-10-16T14:57:24;21.10;86.20
49222;DHT22;35047;37.588;-122.048;2022-10-16T14:59:53;21.20;85.10
49222;DHT22;35047;37.588;-122.048;2022-10-16T15:02:33;20.90;85.40
49222;DHT22;35047;37.588;-122.048;2022-10-16T15:05:21;20.70;85.70
49222;DHT22;35047;37.588;-122.048;2022-10-16T15:07:48;20.80;86.00
49222;DHT22;35047;37.588;-122.048;2022-10-16T15:10:16;20.70;85.40
49222;DHT22;35047;37.588;-122.048;2022-10-16T15:12:43;20.60;86.10
49222;DHT22;35047;37.588;-122.048;2022-10-16T15:15:21;20.70;86.20
49222;DHT22;35047;37.588;-122.048;2022-10-16T15:17:54;20.70;86.30
49222;DHT22;35047;37.588;-122.048;2022-10-16T15:20:25;20.80;85.80
49222;DHT22;35047;37.588;-122.048;2022-10-16T15:22:52;20.90;85.70
49222;DHT22;35047;37.588;-122.048;2022-10-16T15:25:46;21.10;85.50
49222;DHT22;35047;37.588;-122.048;2022-10-16T15:28:15;21.20;84.40
49222;DHT22;35047;37.588;-122.048;2022-10-16T15:30:43;21.10;84.80
49222;DHT22;35047;37.588;-122.048;2022-10-16T15:33:18;21.00;84.90
49222;DHT22;35047;37.588;-122.048;2022-10-16T15:35:49;21.20;84.30
49222;DHT22;35047;37.588;-122.048;2022-10-16T15:38:17;21.30;84.40
49222;DHT22;35047;37.588;-122.048;2022-10-16T15:40:47;21.20;84.30
49222;DHT22;35047;37.588;-122.048;2022-10-16T15:43:14;21.10;84.80
49222;DHT22;35047;37.588;-122.048;2022-10-16T15:45:42;21.00;84.80
49222;DHT22;35047;37.588;-122.048;2022-10-16T15:48:12;21.10;84.50
49222;DHT22;35047;37.588;-122.048;2022-10-16T15:50:42;21.20;84.80
49222;DHT22;35047;37.588;-122.048;2022-10-16T15:53:08;21.20;84.40
49222;DHT22;35047;37.588;-122.048;2022-10-16T15:55:35;21.10;84.20
49222;DHT22;35047;37.588;-122.048;2022-10-16T15:58:03;20.90;85.00
49222;DHT22;35047;37.588;-122.048;2022-10-16T16:00:31;20.90;85.20
49222;DHT22;35047;37.588;-122.048;2022-10-16T16:02:58;21.10;85.50
49222;DHT22;35047;37.588;-122.048;2022-10-16T16:05:26;21.20;84.90
49222;DHT22;35047;37.588;-122.048;2022-10-16T16:07:53;21.40;84.00
49222;DHT22;35047;37.588;-122.048;2022-10-16T16:10:20;21.40;84.30
49222;DHT22;35047;37.588;-122.048;2022-10-16T16:12:48;21.40;83.80
49222;DHT22;35047;37.588;-122.048;2022-10-16T16:15:22;21.50;83.60
49222;DHT22;35047;37.588;-122.048;2022-10-16T16:17:49;21.50;84.30
49222;DHT22;35047;37.588;-122.048;2022-10-16T16:20:16;21.50;83.90
49222;DHT22;35047;37.588;-122.048;2022-10-16T16:22:42;21.60;84.00
49222;DHT22;35047;37.588;-122.048;2022-10-16T16:25:09;21.80;84.10
49222;DHT22;35047;37.588;-122.048;2022-10-16T16:27:36;21.80;82.10
49222;DHT22;35047;37.588;-122.048;2022-10-16T16:30:09;21.80;82.50
49222;DHT22;35047;37.588;-122.048;2022-10-16T16:32:36;21.60;82.60
49222;DHT22;35047;37.588;-122.048;2022-10-16T16:35:03;21.40;82.80
49222;DHT22;35047;37.588;-122.048;2022-10-16T16:37:30;21.20;83.70
49222;DHT22;35047;37.588;-122.048;2022-10-16T16:39:57;21.50;84.10
49222;DHT22;35047;37.588;-122.048;2022-10-16T16:42:26;21.70;83.20